Terminal Aerodrome Forecast
Issued by NWS

Home | Current Version | Previous Version | Text Only | Print | Product List | Glossary On
Versions: 1 2 3 4 5 6 7 8 9 10 11 12 13 14 15 16 17
000
FTUS43 KILX 102300
TAFCMI
TAF
KCMI 102328Z 1100/1124 11006KT P6SM SCT060
     FM110300 10005KT P6SM SCT250
     FM111400 15007KT P6SM BKN200
     FM111800 17008KT P6SM SCT050 BKN200=

USA.gov is the U.S. government's official web portal to all federal, state and local government web resources and services.